createdAt,value
2018-10-05T00:00:29.874Z,70.30
2018-10-05T00:03:01.291Z,71.00
2018-10-05T00:05:32.743Z,71.40
2018-10-05T00:08:04.046Z,71.00
2018-10-05T00:10:36.517Z,71.70
2018-10-05T00:13:08.028Z,71.80
2018-10-05T00:15:39.246Z,71.40
2018-10-05T00:18:10.536Z,70.90
2018-10-05T00:20:41.921Z,70.60
2018-10-05T00:23:13.128Z,70.90
2018-10-05T00:25:44.522Z,70.90
2018-10-05T00:28:15.719Z,70.50
2018-10-05T00:30:46.862Z,71.10
2018-10-05T00:33:18.111Z,71.10
2018-10-05T00:35:49.656Z,71.20
2018-10-05T00:38:20.812Z,71.50
2018-10-05T00:40:58.772Z,71.40
2018-10-05T00:43:31.187Z,71.90
2018-10-05T00:46:02.417Z,71.80
2018-10-05T00:48:33.589Z,71.60
2018-10-05T00:51:04.941Z,71.40
2018-10-05T00:53:36.418Z,71.80
2018-10-05T00:56:07.492Z,72.30
2018-10-05T00:58:38.727Z,72.70
2018-10-05T01:01:10.307Z,73.30
2018-10-05T01:03:41.755Z,73.00
2018-10-05T01:06:13.449Z,72.60
2018-10-05T01:08:48.687Z,72.20
2018-10-05T01:11:20.113Z,72.30
2018-10-05T01:13:51.447Z,72.20
2018-10-05T01:16:22.880Z,72.80
2018-10-05T01:18:54.265Z,73.20
2018-10-05T01:21:25.508Z,73.50
2018-10-05T01:23:56.844Z,73.90
2018-10-05T01:26:28.685Z,73.10
2018-10-05T01:29:00.311Z,72.60
2018-10-05T01:31:31.829Z,72.90
2018-10-05T01:34:02.927Z,72.70
2018-10-05T01:36:34.279Z,72.90
2018-10-05T01:39:06.476Z,72.20
2018-10-05T01:41:37.968Z,72.00
2018-10-05T01:44:09.410Z,72.00
2018-10-05T01:46:40.804Z,71.20
2018-10-05T01:49:12.339Z,70.80
2018-10-05T01:51:43.727Z,71.20
2018-10-05T01:54:15.159Z,72.10
2018-10-05T01:56:46.472Z,72.30
2018-10-05T01:59:17.772Z,72.30
2018-10-05T02:01:49.127Z,72.50
2018-10-05T02:04:20.839Z,71.90
2018-10-05T02:06:52.122Z,71.60
2018-10-05T02:09:23.413Z,72.40
2018-10-05T02:11:54.741Z,71.90
2018-10-05T02:14:26.550Z,71.80
2018-10-05T02:16:58.234Z,72.80
2018-10-05T02:19:29.427Z,72.00
2018-10-05T02:22:00.832Z,72.00
2018-10-05T02:24:32.167Z,70.90
2018-10-05T02:27:03.775Z,71.60
2018-10-05T02:29:35.158Z,71.50
2018-10-05T02:32:06.566Z,72.00
2018-10-05T02:34:37.874Z,71.80
2018-10-05T02:37:09.367Z,72.00
2018-10-05T02:39:41.748Z,72.40
2018-10-05T02:42:13.232Z,72.10
2018-10-05T02:44:44.571Z,72.70
2018-10-05T02:47:15.665Z,71.80
2018-10-05T02:49:46.943Z,72.60
2018-10-05T02:52:19.887Z,72.70
2018-10-05T02:54:51.423Z,72.30
2018-10-05T02:57:22.476Z,72.70
2018-10-05T02:59:53.581Z,73.80
2018-10-05T03:02:34.955Z,73.00
2018-10-05T03:05:06.183Z,73.30
2018-10-05T03:07:37.595Z,73.40
2018-10-05T03:10:08.835Z,73.30
2018-10-05T03:12:40.067Z,73.10
2018-10-05T03:15:11.301Z,72.90
2018-10-05T03:17:42.492Z,72.90
2018-10-05T03:20:13.799Z,72.80
2018-10-05T03:22:45.317Z,73.50
2018-10-05T03:25:16.905Z,74.00
2018-10-05T03:27:48.351Z,72.80
2018-10-05T03:30:19.866Z,73.50
2018-10-05T03:32:51.270Z,73.90
2018-10-05T03:35:22.456Z,74.80
2018-10-05T03:37:53.666Z,74.10
2018-10-05T03:40:25.267Z,74.20
2018-10-05T03:42:56.663Z,75.10
2018-10-05T03:45:28.205Z,74.10
2018-10-05T03:47:59.623Z,73.30
2018-10-05T03:50:30.689Z,73.50
2018-10-05T03:53:02.407Z,73.00
2018-10-05T03:55:33.812Z,73.30
2018-10-05T03:58:05.101Z,72.30
2018-10-05T04:00:36.389Z,72.80
2018-10-05T04:03:07.802Z,73.20
2018-10-05T04:05:39.128Z,73.50
2018-10-05T04:08:10.528Z,73.40
2018-10-05T04:10:41.915Z,73.20
2018-10-05T04:13:13.177Z,73.00
2018-10-05T04:15:44.584Z,73.30
2018-10-05T04:18:16.076Z,73.60
2018-10-05T04:20:47.553Z,74.00
2018-10-05T04:23:18.953Z,74.00
2018-10-05T04:25:50.197Z,73.80
2018-10-05T04:28:21.512Z,73.30
2018-10-05T04:30:53.203Z,73.50
2018-10-05T04:33:24.494Z,73.80
2018-10-05T04:35:55.646Z,73.30
2018-10-05T04:38:27.043Z,73.60
2018-10-05T04:40:58.503Z,73.50
2018-10-05T04:43:29.657Z,73.50
2018-10-05T04:46:00.926Z,72.90
2018-10-05T04:48:32.193Z,73.10
2018-10-05T04:51:03.534Z,73.20
2018-10-05T04:53:35.215Z,73.00
2018-10-05T04:56:06.508Z,73.40
2018-10-05T04:58:37.899Z,73.20
2018-10-05T05:01:09.080Z,72.90
2018-10-05T05:03:40.383Z,72.90
2018-10-05T05:06:11.545Z,72.80
2018-10-05T05:08:42.813Z,72.80
2018-10-05T05:11:14.152Z,72.90
2018-10-05T05:13:45.435Z,72.80
2018-10-05T05:16:16.805Z,72.20
2018-10-05T05:18:48.034Z,72.10
2018-10-05T05:21:19.560Z,71.70
2018-10-05T05:23:50.999Z,71.80
2018-10-05T05:26:22.356Z,70.60
2018-10-05T05:28:53.825Z,70.50
2018-10-05T05:31:25.243Z,70.30
2018-10-05T05:33:56.601Z,68.20
2018-10-05T05:36:27.999Z,66.80
2018-10-05T05:38:59.197Z,65.00
2018-10-05T05:41:30.620Z,64.20
2018-10-05T05:44:02.182Z,64.60
2018-10-05T05:46:33.769Z,67.60
2018-10-05T05:49:05.168Z,65.90
2018-10-05T05:51:36.792Z,62.40
2018-10-05T05:54:08.430Z,62.90
2018-10-05T05:56:39.728Z,61.60
2018-10-05T05:59:11.210Z,62.90
2018-10-05T06:01:42.396Z,61.40
2018-10-05T06:04:13.692Z,58.80
2018-10-05T06:06:45.040Z,57.60
2018-10-05T06:09:16.302Z,57.70
2018-10-05T06:11:47.643Z,56.80
2018-10-05T06:14:18.796Z,56.90
2018-10-05T06:16:50.030Z,57.50
2018-10-05T06:19:21.407Z,58.50
2018-10-05T06:21:53.181Z,57.20
2018-10-05T06:24:24.394Z,56.70
2018-10-05T06:26:55.707Z,56.50
2018-10-05T06:29:27.059Z,56.30
2018-10-05T06:31:58.501Z,56.10
2018-10-05T06:34:29.899Z,55.40
2018-10-05T06:37:01.337Z,53.80
2018-10-05T06:39:32.564Z,54.10
2018-10-05T06:42:03.875Z,54.40
2018-10-05T06:44:35.168Z,53.50
2018-10-05T06:47:06.596Z,53.40
2018-10-05T06:49:37.870Z,52.00
2018-10-05T06:52:09.265Z,50.80
2018-10-05T06:54:40.949Z,50.50
2018-10-05T06:57:12.323Z,51.10
2018-10-05T06:59:43.496Z,51.40
2018-10-05T07:02:14.801Z,50.10
2018-10-05T07:04:46.390Z,50.50
2018-10-05T07:07:17.794Z,51.40
2018-10-05T07:09:49.337Z,50.90
2018-10-05T07:12:20.667Z,50.50
2018-10-05T07:14:52.396Z,50.60
2018-10-05T07:17:23.399Z,49.60
2018-10-05T07:19:54.469Z,49.50
2018-10-05T07:22:26.081Z,50.30
2018-10-05T07:24:57.545Z,48.40
2018-10-05T07:27:28.870Z,47.10
2018-10-05T07:30:00.399Z,48.40
2018-10-05T07:32:32.026Z,47.00
2018-10-05T07:35:03.187Z,48.10
2018-10-05T07:37:34.613Z,46.80
2018-10-05T07:40:06.343Z,47.70
2018-10-05T07:42:37.787Z,47.50
2018-10-05T07:45:09.344Z,46.10
2018-10-05T07:47:40.936Z,45.40
2018-10-05T07:50:12.552Z,44.20
2018-10-05T07:52:44.039Z,44.50
2018-10-05T07:55:15.440Z,42.80
2018-10-05T07:57:47.059Z,43.10
2018-10-05T08:00:18.868Z,42.80
2018-10-05T08:02:50.117Z,41.90
2018-10-05T08:05:21.540Z,41.90
2018-10-05T08:07:52.962Z,42.50
2018-10-05T08:10:24.579Z,41.90
2018-10-05T08:12:55.819Z,41.90
2018-10-05T08:15:27.175Z,41.40
2018-10-05T08:17:58.871Z,41.70
2018-10-05T08:20:30.576Z,42.40
2018-10-05T08:23:01.990Z,41.50
2018-10-05T08:25:33.370Z,42.10
2018-10-05T08:28:04.763Z,41.70
2018-10-05T08:30:35.937Z,41.60
2018-10-05T08:33:07.158Z,41.40
2018-10-05T08:35:38.588Z,40.00
2018-10-05T08:38:10.326Z,38.50
2018-10-05T08:40:41.720Z,39.50
2018-10-05T08:43:13.117Z,40.00
2018-10-05T08:45:44.850Z,40.90
2018-10-05T08:48:16.223Z,40.30
2018-10-05T08:50:47.575Z,40.30
2018-10-05T08:53:19.080Z,40.40
2018-10-05T08:55:50.381Z,41.00
2018-10-05T08:58:22.048Z,40.30
2018-10-05T09:00:53.315Z,41.50
2018-10-05T09:03:24.539Z,40.90
2018-10-05T09:05:56.113Z,41.00
2018-10-05T09:08:27.402Z,39.40
2018-10-05T09:10:59.103Z,39.30
2018-10-05T09:13:30.460Z,40.30
2018-10-05T09:16:01.675Z,39.90
2018-10-05T09:18:32.920Z,40.80
2018-10-05T09:21:04.395Z,40.10
2018-10-05T09:23:35.965Z,39.60
2018-10-05T09:26:07.271Z,39.70
2018-10-05T09:28:38.836Z,39.00
2018-10-05T09:31:10.417Z,39.50
2018-10-05T09:33:41.968Z,40.10
2018-10-05T09:36:13.243Z,39.60
2018-10-05T09:38:44.551Z,40.00
2018-10-05T09:41:16.017Z,39.30
2018-10-05T09:43:47.299Z,38.50
2018-10-05T09:46:18.745Z,39.60
2018-10-05T09:48:50.015Z,39.70
2018-10-05T09:51:21.667Z,39.80
2018-10-05T09:53:52.843Z,39.90
2018-10-05T09:56:24.603Z,38.90
2018-10-05T09:58:56.016Z,39.00
2018-10-05T10:01:32.325Z,39.90
2018-10-05T10:04:03.665Z,40.40
2018-10-05T10:06:35.232Z,39.00
2018-10-05T10:09:09.070Z,39.10
2018-10-05T10:11:40.516Z,38.50
2018-10-05T10:14:12.087Z,37.80
2018-10-05T10:16:44.058Z,39.10
2018-10-05T10:19:15.333Z,38.50
2018-10-05T10:21:46.702Z,39.50
2018-10-05T10:24:18.409Z,39.60
2018-10-05T10:26:49.688Z,39.30
2018-10-05T10:29:21.317Z,39.90
2018-10-05T10:31:52.760Z,40.00
2018-10-05T10:34:24.429Z,40.20
2018-10-05T10:36:56.005Z,39.80
2018-10-05T10:39:27.375Z,39.90
2018-10-05T10:41:58.695Z,40.80
2018-10-05T10:44:30.435Z,40.60
2018-10-05T10:47:01.905Z,41.00
2018-10-05T10:49:33.684Z,41.10
2018-10-05T10:52:05.102Z,41.10
2018-10-05T10:54:36.272Z,41.60
2018-10-05T10:57:07.718Z,42.70
2018-10-05T10:59:39.388Z,41.50
2018-10-05T11:02:10.751Z,42.00
2018-10-05T11:04:42.279Z,42.60
2018-10-05T11:07:13.692Z,41.60
2018-10-05T11:09:44.976Z,40.80
2018-10-05T11:12:16.196Z,41.40
2018-10-05T11:14:47.377Z,42.50
2018-10-05T11:17:19.110Z,42.90
2018-10-05T11:19:50.556Z,44.00
2018-10-05T11:22:22.191Z,43.70
2018-10-05T11:24:53.864Z,44.00
2018-10-05T11:27:25.428Z,43.80
2018-10-05T11:29:56.698Z,43.30
2018-10-05T11:32:28.267Z,43.20
2018-10-05T11:34:59.677Z,43.60
2018-10-05T11:37:31.139Z,43.40
2018-10-05T11:40:02.554Z,43.60
2018-10-05T11:42:33.938Z,43.20
2018-10-05T11:45:05.359Z,43.00
2018-10-05T11:47:37.016Z,42.70
2018-10-05T11:50:08.357Z,42.50
2018-10-05T11:52:39.880Z,42.80
2018-10-05T11:55:11.313Z,42.70
2018-10-05T11:57:42.882Z,42.20
2018-10-05T12:00:17.347Z,42.90
2018-10-05T12:02:49.200Z,42.80
2018-10-05T12:05:21.263Z,42.50
2018-10-05T12:07:52.636Z,42.50
2018-10-05T12:10:24.336Z,42.60
2018-10-05T12:12:55.939Z,41.50
2018-10-05T12:15:27.510Z,42.40
2018-10-05T12:17:59.300Z,42.30
2018-10-05T12:20:30.587Z,42.60
2018-10-05T12:23:01.812Z,42.90
2018-10-05T12:25:33.180Z,43.30
2018-10-05T12:28:05.085Z,43.80
2018-10-05T12:30:36.913Z,43.20
2018-10-05T12:33:08.530Z,43.20
2018-10-05T12:35:40.331Z,43.40
2018-10-05T12:38:12.099Z,43.40
2018-10-05T12:40:43.397Z,44.00
2018-10-05T12:43:14.691Z,44.20
2018-10-05T12:45:46.054Z,43.90
2018-10-05T12:48:17.570Z,44.00
2018-10-05T12:50:48.739Z,43.60
2018-10-05T12:53:20.240Z,43.10
2018-10-05T12:55:51.638Z,43.80
2018-10-05T12:58:23.056Z,43.10
2018-10-05T13:00:54.406Z,43.40
2018-10-05T13:03:26.226Z,42.90
2018-10-05T13:05:57.737Z,43.70
2018-10-05T13:08:29.438Z,43.20
2018-10-05T13:11:01.215Z,41.80
2018-10-05T13:13:32.459Z,41.70
2018-10-05T13:16:03.858Z,41.90
2018-10-05T13:18:35.573Z,42.40
2018-10-05T13:21:06.777Z,42.40
2018-10-05T13:23:37.939Z,42.60
2018-10-05T13:26:10.307Z,42.30
2018-10-05T13:28:41.762Z,42.10
2018-10-05T13:31:13.133Z,42.30
2018-10-05T13:33:44.622Z,42.30
2018-10-05T13:36:15.915Z,43.00
2018-10-05T13:38:47.423Z,42.00
2018-10-05T13:41:18.932Z,42.10
2018-10-05T13:43:50.263Z,42.20
2018-10-05T13:46:21.736Z,42.00
2018-10-05T13:48:53.226Z,43.40
2018-10-05T13:51:24.915Z,43.10
2018-10-05T13:53:56.523Z,43.20
2018-10-05T13:56:27.892Z,43.00
2018-10-05T13:58:59.338Z,42.60
2018-10-05T14:01:30.832Z,43.10
2018-10-05T14:04:02.192Z,43.50
2018-10-05T14:06:33.637Z,42.70
2018-10-05T14:09:07.275Z,42.70
2018-10-05T14:11:38.851Z,43.20
2018-10-05T14:14:10.241Z,42.90
2018-10-05T14:16:41.506Z,42.90
2018-10-05T14:19:13.052Z,43.30
2018-10-05T14:21:44.419Z,43.90
2018-10-05T14:24:15.672Z,43.70
2018-10-05T14:26:47.144Z,44.10
2018-10-05T14:29:18.799Z,43.40
2018-10-05T14:31:50.102Z,43.90
2018-10-05T14:34:21.168Z,44.30
2018-10-05T14:36:52.198Z,44.90
2018-10-05T14:39:23.800Z,44.50
2018-10-05T14:41:55.743Z,44.90
2018-10-05T14:44:27.138Z,44.90
2018-10-05T14:46:58.508Z,44.60
2018-10-05T14:49:29.950Z,45.00
2018-10-05T14:52:01.755Z,44.90
2018-10-05T14:54:33.384Z,45.40
2018-10-05T14:57:04.720Z,45.40
2018-10-05T14:59:36.181Z,45.80
2018-10-05T15:02:07.655Z,45.80
2018-10-05T15:04:39.513Z,46.10
2018-10-05T15:07:11.507Z,46.40
2018-10-05T15:09:43.156Z,46.00
2018-10-05T15:12:14.725Z,46.60
2018-10-05T15:14:46.200Z,46.50
2018-10-05T15:17:17.787Z,46.50
2018-10-05T15:19:49.139Z,46.40
2018-10-05T15:22:20.531Z,46.50
2018-10-05T15:24:52.141Z,46.70
2018-10-05T15:27:23.601Z,46.70
2018-10-05T15:29:55.034Z,46.90
2018-10-05T15:32:26.505Z,46.90
2018-10-05T15:34:58.311Z,46.90
2018-10-05T15:37:29.845Z,47.00
2018-10-05T15:40:01.228Z,47.20
2018-10-05T15:42:32.672Z,47.30
2018-10-05T15:45:04.236Z,47.40
2018-10-05T15:47:35.575Z,47.70
2018-10-05T15:50:07.165Z,47.90
2018-10-05T15:52:38.690Z,48.30
2018-10-05T15:55:10.188Z,48.70
2018-10-05T15:57:41.575Z,48.80
2018-10-05T16:00:12.793Z,49.10
2018-10-05T16:02:44.305Z,49.30
2018-10-05T16:05:15.779Z,49.50
2018-10-05T16:07:47.111Z,49.70
2018-10-05T16:10:18.597Z,49.90
2018-10-05T16:12:50.038Z,49.90
2018-10-05T16:15:21.457Z,50.00
2018-10-05T16:17:52.784Z,50.40
2018-10-05T16:20:24.261Z,50.60
2018-10-05T16:22:55.500Z,50.50
2018-10-05T16:25:26.844Z,50.70
2018-10-05T16:27:58.293Z,50.80
2018-10-05T16:30:29.876Z,50.90
2018-10-05T16:33:01.148Z,51.00
2018-10-05T16:35:32.754Z,51.30
2018-10-05T16:38:04.323Z,51.10
2018-10-05T16:40:35.739Z,51.30
2018-10-05T16:43:07.603Z,51.30
2018-10-05T16:45:39.088Z,51.60
2018-10-05T16:48:10.629Z,51.70
2018-10-05T16:50:42.201Z,51.90
2018-10-05T16:53:13.709Z,51.90
2018-10-05T16:55:45.259Z,52.20
2018-10-05T16:58:16.708Z,52.30
2018-10-05T17:00:48.436Z,52.50
2018-10-05T17:03:19.923Z,52.70
2018-10-05T17:05:51.226Z,53.00
2018-10-05T17:08:22.904Z,53.20
2018-10-05T17:10:54.602Z,53.50
2018-10-05T17:13:26.136Z,53.80
2018-10-05T17:15:57.897Z,54.00
2018-10-05T17:18:29.338Z,54.50
2018-10-05T17:21:00.859Z,55.20
2018-10-05T17:23:32.481Z,55.50
2018-10-05T17:26:04.100Z,55.50
2018-10-05T17:28:36.095Z,56.50
2018-10-05T17:31:07.818Z,55.90
2018-10-05T17:33:39.263Z,56.00
2018-10-05T17:36:11.144Z,56.30
2018-10-05T17:38:42.508Z,56.40
2018-10-05T17:41:13.963Z,56.60
2018-10-05T17:43:45.345Z,56.70
2018-10-05T17:46:16.677Z,56.80
2018-10-05T17:48:48.157Z,56.90
2018-10-05T17:51:19.700Z,57.00
2018-10-05T17:53:51.194Z,57.20
2018-10-05T17:56:22.537Z,57.20
2018-10-05T17:58:54.249Z,57.40
2018-10-05T18:01:26.019Z,57.30
2018-10-05T18:03:57.451Z,57.50
2018-10-05T18:06:29.371Z,57.70
2018-10-05T18:09:00.747Z,57.60
2018-10-05T18:11:32.282Z,57.70
2018-10-05T18:14:03.690Z,58.00
2018-10-05T18:16:35.068Z,58.30
2018-10-05T18:19:06.490Z,58.40
2018-10-05T18:21:37.993Z,58.40
2018-10-05T18:24:09.535Z,58.60
2018-10-05T18:26:40.856Z,58.60
2018-10-05T18:29:12.111Z,58.70
2018-10-05T18:31:43.616Z,58.60
2018-10-05T18:34:14.988Z,58.60
2018-10-05T18:36:46.675Z,59.50
2018-10-05T18:39:18.009Z,61.20
2018-10-05T18:41:49.702Z,59.00
2018-10-05T18:44:21.486Z,59.50
2018-10-05T18:46:53.332Z,59.20
2018-10-05T18:49:24.957Z,59.80
2018-10-05T18:51:56.368Z,59.60
2018-10-05T18:54:28.921Z,59.90
2018-10-05T18:57:13.127Z,58.70
2018-10-05T18:59:44.617Z,59.00
2018-10-05T19:02:16.788Z,59.00
2018-10-05T19:04:48.945Z,59.20
2018-10-05T19:07:20.377Z,58.90
2018-10-05T19:09:51.823Z,59.30
2018-10-05T19:12:23.300Z,59.10
2018-10-05T19:14:54.528Z,59.30
2018-10-05T19:17:26.056Z,59.40
2018-10-05T19:19:57.412Z,59.60
2018-10-05T19:22:28.885Z,59.10
2018-10-05T19:25:00.095Z,59.20
2018-10-05T19:27:31.493Z,60.00
2018-10-05T19:30:03.152Z,60.40
2018-10-05T19:32:34.730Z,60.90
2018-10-05T19:35:06.363Z,60.90
2018-10-05T19:37:38.048Z,61.00
2018-10-05T19:40:09.409Z,61.10
2018-10-05T19:42:40.996Z,61.20
2018-10-05T19:45:12.562Z,61.70
2018-10-05T19:47:44.174Z,61.30
2018-10-05T19:50:15.834Z,60.50
2018-10-05T19:52:47.715Z,60.90
2018-10-05T19:55:18.959Z,61.20
2018-10-05T19:57:50.696Z,61.10
2018-10-05T20:00:21.849Z,61.70
2018-10-05T20:02:53.064Z,62.70
2018-10-05T20:05:25.099Z,62.80
2018-10-05T20:07:56.506Z,62.50
2018-10-05T20:10:27.684Z,62.20
2018-10-05T20:12:59.076Z,61.70
2018-10-05T20:15:30.705Z,61.80
2018-10-05T20:18:02.214Z,62.00
2018-10-05T20:20:33.347Z,62.30
2018-10-05T20:23:04.716Z,62.10
2018-10-05T20:25:36.268Z,61.80
2018-10-05T20:28:07.820Z,61.10
2018-10-05T20:30:39.357Z,61.30
2018-10-05T20:33:10.521Z,61.50
2018-10-05T20:35:42.113Z,61.70
2018-10-05T20:38:13.531Z,61.90
2018-10-05T20:40:44.932Z,61.60
2018-10-05T20:43:16.305Z,61.90
2018-10-05T20:45:47.476Z,61.90
2018-10-05T20:48:18.900Z,62.40
2018-10-05T20:50:50.595Z,62.50
2018-10-05T20:53:22.023Z,62.40
2018-10-05T20:55:53.359Z,62.30
2018-10-05T20:58:24.688Z,62.00
2018-10-05T21:00:56.136Z,61.90
2018-10-05T21:03:27.554Z,61.70
2018-10-05T21:05:59.176Z,61.60
2018-10-05T21:08:30.418Z,61.70
2018-10-05T21:11:02.496Z,62.00
2018-10-05T21:13:33.994Z,62.00
2018-10-05T21:16:05.066Z,62.70
2018-10-05T21:18:36.394Z,63.40
2018-10-05T21:21:07.849Z,62.30
2018-10-05T21:23:39.303Z,61.80
2018-10-05T21:26:10.668Z,62.20
2018-10-05T21:28:41.913Z,65.30
2018-10-05T21:31:13.446Z,65.90
2018-10-05T21:33:44.733Z,66.30
2018-10-05T21:36:16.292Z,67.00
2018-10-05T21:38:48.000Z,65.60
2018-10-05T21:41:19.268Z,65.10
2018-10-05T21:43:50.559Z,63.60
2018-10-05T21:46:21.993Z,63.40
2018-10-05T21:48:53.447Z,63.60
2018-10-05T21:51:25.226Z,63.60
2018-10-05T21:53:56.392Z,63.00
2018-10-05T21:56:27.950Z,62.40
2018-10-05T21:58:59.654Z,62.50
2018-10-05T22:01:30.851Z,62.20
2018-10-05T22:04:02.003Z,61.70
2018-10-05T22:06:33.289Z,62.20
2018-10-05T22:09:06.414Z,62.50
2018-10-05T22:11:37.876Z,62.40
2018-10-05T22:14:09.339Z,61.60
2018-10-05T22:16:40.693Z,63.10
2018-10-05T22:19:12.023Z,63.80
2018-10-05T22:21:43.786Z,63.30
2018-10-05T22:24:14.976Z,63.60
2018-10-05T22:26:46.551Z,63.50
2018-10-05T22:29:18.950Z,63.60
2018-10-05T22:31:50.480Z,64.30
2018-10-05T22:34:22.960Z,64.60
2018-10-05T22:36:54.153Z,65.30
2018-10-05T22:39:25.485Z,64.60
2018-10-05T22:41:57.366Z,64.60
2018-10-05T22:44:28.795Z,65.00
2018-10-05T22:47:00.003Z,64.70
2018-10-05T22:49:31.328Z,65.60
2018-10-05T22:52:03.040Z,65.30
2018-10-05T22:54:34.512Z,65.20
2018-10-05T22:57:06.091Z,64.80
2018-10-05T22:59:37.679Z,65.10
2018-10-05T23:02:09.032Z,65.30
2018-10-05T23:04:40.139Z,66.00
2018-10-05T23:07:11.724Z,65.20
2018-10-05T23:09:43.280Z,65.30
2018-10-05T23:12:14.455Z,65.10
2018-10-05T23:14:45.762Z,65.00
2018-10-05T23:17:23.730Z,65.00
2018-10-05T23:19:55.114Z,65.60
2018-10-05T23:22:26.611Z,65.20
2018-10-05T23:24:58.364Z,65.40
2018-10-05T23:27:29.849Z,65.10
2018-10-05T23:30:01.117Z,65.30
2018-10-05T23:32:32.451Z,65.50
2018-10-05T23:35:03.684Z,65.30
2018-10-05T23:37:34.963Z,66.30
2018-10-05T23:40:06.048Z,65.60
2018-10-05T23:42:37.759Z,65.30
2018-10-05T23:45:09.052Z,65.60
2018-10-05T23:47:40.224Z,65.50
2018-10-05T23:50:11.519Z,65.80
2018-10-05T23:52:46.277Z,65.60
2018-10-05T23:55:17.700Z,65.60
2018-10-05T23:57:49.478Z,65.40
